Página principal
METAR-TAF:

METAR-TAF

Aeroportos :

Cairo, Egipto

Aeroporto Internacional do Cairo

latitude: 30-08N, longitude: 031-24E, altura: 64 m

Observação actual do tempo

O boletim foi feito há 30 minutos, às 14:00 UTC
Vento 6 kt de noroeste
Temperatura 36°C
Humidade 35%
Pressão 1009 hPa
Visibilidade: 6000 m

METAR: HECA 181400Z 31006KT 6000 NSC 36/18 Q1009 NOSIG

Hora: 16:30 (14:30 UTC)

Previsão

O boletim foi feito há 3 horas e 30 minutos, às 11:00 UTC
Previsão válida de 18 às 12 UTC a 19 às 18 UTC
Vento 10 kt de nor-noroeste
Visibilidade 10 km ou mais
sem nuvens abaixo de 1500 metros e sem cumulonimbus
Tornando-se
de 18 às 18 UTC a 18 às 20 UTC
Vento 7 kt de nordeste
Temporariamente
de 19 às 03 UTC a 19 às 06 UTC
Vento 3 kt com direcção variável

TAF: HECA 181100Z 1812/1918 33010KT CAVOK BECMG 1818/1820 05007KT TEMPO 1903/1906 VRB03KT

Observações e previsões do tempo de mais de 4000 aeroportos (mensagens METAR e TAF).

As estações disponíveis são os pontos amarelos e vermelhos sobre o mapa.

Mova o rato sobre o mapa para ver o nome da estação.

Depois clique no ponto para visualizar as observações e previsões meteorológicas.

Para alterar o mapa : clique nos botões verdes com uma cruz preta para aumentar o zoom; no botão verde com uma pitada de zoom; ou nas setas verdes para mapas adjacentes.


METAR-TAF: